createdAt,value
2022-08-20T00:01:19.100Z,8.35
2022-08-20T00:03:50.131Z,7.95
2022-08-20T00:06:23.208Z,7.05
2022-08-20T00:08:53.163Z,7.05
2022-08-20T00:11:29.064Z,16.95
2022-08-20T00:13:59.658Z,8.23
2022-08-20T00:16:32.890Z,8.05
2022-08-20T00:19:01.204Z,6.10
2022-08-20T00:21:28.495Z,6.70
2022-08-20T00:24:01.533Z,8.88
2022-08-20T00:26:28.939Z,9.88
2022-08-20T00:28:58.005Z,7.85
2022-08-20T00:31:25.805Z,8.15
2022-08-20T00:33:55.938Z,8.23
2022-08-20T00:36:32.487Z,6.13
2022-08-20T00:38:59.945Z,6.53
2022-08-20T00:41:27.897Z,5.75
2022-08-20T00:44:16.064Z,6.18
2022-08-20T00:46:44.554Z,6.38
2022-08-20T00:49:25.766Z,8.20
2022-08-20T00:52:05.223Z,9.30
2022-08-20T00:54:40.001Z,7.35
2022-08-20T00:57:43.872Z,10.25
2022-08-20T01:00:31.908Z,6.38
2022-08-20T01:03:00.625Z,7.78
2022-08-20T01:05:29.613Z,10.25
2022-08-20T01:07:57.671Z,7.63
2022-08-20T01:10:35.105Z,5.47
2022-08-20T01:13:10.085Z,5.35
2022-08-20T01:15:43.214Z,4.53
2022-08-20T01:18:16.514Z,6.97
2022-08-20T01:20:53.068Z,6.88
2022-08-20T01:23:43.591Z,4.72
2022-08-20T01:26:34.655Z,7.88
2022-08-20T01:29:11.076Z,5.40
2022-08-20T01:31:40.143Z,7.15
2022-08-20T01:34:10.833Z,7.85
2022-08-20T01:36:46.410Z,7.10
2022-08-20T01:39:18.391Z,4.75
2022-08-20T01:42:12.870Z,8.75
2022-08-20T01:44:42.595Z,10.10
2022-08-20T01:47:18.930Z,5.38
2022-08-20T01:49:55.546Z,6.45
2022-08-20T01:52:35.798Z,5.97
2022-08-20T01:55:03.736Z,6.47
2022-08-20T01:57:30.681Z,7.95
2022-08-20T01:59:57.546Z,6.07
2022-08-20T02:02:26.707Z,7.60
2022-08-20T02:04:54.172Z,8.80
2022-08-20T02:07:23.668Z,6.63
2022-08-20T02:09:51.596Z,6.85
2022-08-20T02:12:19.309Z,7.45
2022-08-20T02:14:52.252Z,6.57
2022-08-20T02:17:22.843Z,7.55
2022-08-20T02:19:55.058Z,8.25
2022-08-20T02:22:39.737Z,8.27
2022-08-20T02:25:14.788Z,9.77
2022-08-20T02:27:44.280Z,8.93
2022-08-20T02:30:24.788Z,5.72
2022-08-20T02:32:57.170Z,6.00
2022-08-20T02:35:25.501Z,5.68
2022-08-20T02:37:53.761Z,8.48
2022-08-20T02:40:30.451Z,6.43
2022-08-20T02:43:01.581Z,5.95
2022-08-20T02:45:37.398Z,7.65
2022-08-20T02:48:07.552Z,6.85
2022-08-20T02:50:35.129Z,5.57
2022-08-20T02:53:02.448Z,8.20
2022-08-20T02:55:29.767Z,4.83
2022-08-20T02:57:59.336Z,6.67
2022-08-20T03:00:32.141Z,5.35
2022-08-20T03:03:05.522Z,8.90
2022-08-20T03:05:32.788Z,5.70
2022-08-20T03:07:59.946Z,5.47
2022-08-20T03:10:30.938Z,4.60
2022-08-20T03:13:00.925Z,5.70
2022-08-20T03:15:28.363Z,7.30
2022-08-20T03:17:55.374Z,7.93
2022-08-20T03:20:24.013Z,5.38
2022-08-20T03:22:51.888Z,6.50
2022-08-20T03:25:19.282Z,4.53
2022-08-20T03:27:47.242Z,7.35
2022-08-20T03:30:21.025Z,6.75
2022-08-20T03:32:48.005Z,6.05
2022-08-20T03:35:17.707Z,6.00
2022-08-20T03:37:56.214Z,7.45
2022-08-20T03:40:35.157Z,7.55
2022-08-20T03:43:06.647Z,5.35
2022-08-20T03:45:33.549Z,6.05
2022-08-20T03:48:01.695Z,6.88
2022-08-20T03:57:56.070Z,9.63
2022-08-20T04:00:29.951Z,9.20
2022-08-20T04:02:59.404Z,10.68
2022-08-20T04:05:30.987Z,6.82
2022-08-20T04:08:03.264Z,10.35
2022-08-20T04:10:31.837Z,8.45
2022-08-20T04:15:26.832Z,12.13
2022-08-20T04:17:56.272Z,8.60
2022-08-20T04:20:25.995Z,12.70
2022-08-20T04:22:58.491Z,11.13
2022-08-20T04:25:35.889Z,12.85
2022-08-20T04:28:05.983Z,8.70
2022-08-20T04:30:35.387Z,11.63
2022-08-20T04:33:02.390Z,11.07
2022-08-20T04:35:32.723Z,10.98
2022-08-20T04:38:06.775Z,9.35
2022-08-20T04:40:53.494Z,9.35
2022-08-20T04:43:23.325Z,7.80
2022-08-20T04:45:53.809Z,7.95
2022-08-20T04:48:24.023Z,10.70
2022-08-20T04:50:54.807Z,10.23
2022-08-20T04:53:25.978Z,10.20
2022-08-20T04:55:57.061Z,7.55
2022-08-20T04:58:33.598Z,9.30
2022-08-20T05:01:04.074Z,9.00
2022-08-20T05:03:31.664Z,8.75
2022-08-20T05:06:01.836Z,7.65
2022-08-20T05:08:29.860Z,13.65
2022-08-20T05:11:30.143Z,8.18
2022-08-20T05:13:45.221Z,12.43
2022-08-20T05:16:12.524Z,13.82
2022-08-20T05:18:39.447Z,11.50
2022-08-20T05:21:06.485Z,13.98
2022-08-20T05:23:36.097Z,8.77
2022-08-20T05:26:09.140Z,11.70
2022-08-20T05:28:53.888Z,7.22
2022-08-20T05:31:31.001Z,10.75
2022-08-20T05:34:12.152Z,9.52
2022-08-20T05:36:42.409Z,9.07
2022-08-20T05:39:10.525Z,15.70
2022-08-20T05:44:09.930Z,11.45
2022-08-20T05:46:40.759Z,12.93
2022-08-20T05:49:09.312Z,9.57
2022-08-20T05:51:37.093Z,13.45
2022-08-20T05:54:05.934Z,11.13
2022-08-20T05:56:33.963Z,13.25
2022-08-20T05:59:05.642Z,15.00
2022-08-20T06:01:34.840Z,11.73
2022-08-20T06:04:20.656Z,14.60
2022-08-20T06:06:51.734Z,13.73
2022-08-20T06:09:30.936Z,17.75
2022-08-20T06:12:00.758Z,15.48
2022-08-20T06:14:27.593Z,14.57
2022-08-20T06:16:57.614Z,18.52
2022-08-20T06:19:26.880Z,13.25
2022-08-20T06:21:54.700Z,15.60
2022-08-20T06:24:22.007Z,16.67
2022-08-20T06:26:55.194Z,18.97
2022-08-20T06:29:22.133Z,15.20
2022-08-20T06:31:49.465Z,18.27
2022-08-20T06:34:16.725Z,13.77
2022-08-20T06:36:46.390Z,16.57
2022-08-20T06:39:15.430Z,18.30
2022-08-20T06:41:42.951Z,15.77
2022-08-20T06:44:10.207Z,14.63
2022-08-20T06:46:39.049Z,14.48
2022-08-20T06:49:08.658Z,20.10
2022-08-20T06:51:37.455Z,15.68
2022-08-20T06:54:07.405Z,17.42
2022-08-20T06:56:34.784Z,16.40
2022-08-20T06:59:04.467Z,15.98
2022-08-20T07:01:31.338Z,16.67
2022-08-20T07:03:59.697Z,21.52
2022-08-20T07:06:27.090Z,12.43
2022-08-20T07:08:55.749Z,11.27
2022-08-20T07:11:27.731Z,18.55
2022-08-20T07:13:56.834Z,15.45
2022-08-20T07:16:24.206Z,17.65
2022-08-20T07:18:51.069Z,14.87
2022-08-20T07:21:17.898Z,16.92
2022-08-20T07:23:45.638Z,21.42
2022-08-20T07:26:15.413Z,14.60
2022-08-20T07:28:42.300Z,15.40
2022-08-20T07:31:27.833Z,14.68
2022-08-20T07:33:58.374Z,16.83
2022-08-20T07:36:27.020Z,16.30
2022-08-20T07:38:54.419Z,16.63
2022-08-20T07:41:21.367Z,16.65
2022-08-20T07:43:49.090Z,13.63
2022-08-20T07:46:20.853Z,17.77
2022-08-20T07:48:50.238Z,15.82
2022-08-20T07:51:22.368Z,12.15
2022-08-20T07:53:51.490Z,14.70
2022-08-20T07:56:21.632Z,14.10
2022-08-20T07:58:53.250Z,15.98
2022-08-20T08:01:28.465Z,16.45
2022-08-20T08:03:57.598Z,17.23
2022-08-20T08:06:30.258Z,16.92
2022-08-20T08:09:13.130Z,14.68
2022-08-20T08:11:47.568Z,17.77
2022-08-20T08:14:17.579Z,19.13
2022-08-20T08:16:45.464Z,21.98
2022-08-20T08:19:14.789Z,17.10
2022-08-20T08:21:44.882Z,16.83
2022-08-20T08:24:20.290Z,15.02
2022-08-20T08:26:50.136Z,13.98
2022-08-20T08:29:17.247Z,15.48
2022-08-20T08:31:44.352Z,13.32
2022-08-20T08:34:11.634Z,17.75
2022-08-20T08:36:39.332Z,17.90
2022-08-20T08:39:06.712Z,15.93
2022-08-20T08:41:50.096Z,15.80
2022-08-20T08:44:27.293Z,15.25
2022-08-20T08:46:59.047Z,9.60
2022-08-20T08:49:37.979Z,13.27
2022-08-20T08:52:25.887Z,18.23
2022-08-20T08:54:56.910Z,12.02
2022-08-20T08:57:24.783Z,12.98
2022-08-20T09:00:04.322Z,17.42
2022-08-20T09:02:33.446Z,14.52
2022-08-20T09:05:13.387Z,9.77
2022-08-20T09:07:41.576Z,8.63
2022-08-20T09:12:38.212Z,11.43
2022-08-20T09:15:05.737Z,12.40
2022-08-20T09:17:33.039Z,7.82
2022-08-20T09:20:00.387Z,9.27
2022-08-20T09:22:27.932Z,9.77
2022-08-20T09:24:54.830Z,8.30
2022-08-20T09:27:21.698Z,8.63
2022-08-20T09:29:49.292Z,11.20
2022-08-20T09:32:24.117Z,10.32
2022-08-20T09:34:59.227Z,10.52
2022-08-20T09:37:30.609Z,9.45
2022-08-20T09:40:01.886Z,8.95
2022-08-20T09:42:40.952Z,10.25
2022-08-20T09:45:11.107Z,9.57
2022-08-20T09:47:55.226Z,7.68
2022-08-20T09:50:33.840Z,5.68
2022-08-20T09:53:05.600Z,13.20
2022-08-20T09:55:41.417Z,7.82
2022-08-20T09:58:22.363Z,10.07
2022-08-20T10:00:49.325Z,10.57
2022-08-20T10:03:16.800Z,6.60
2022-08-20T10:05:46.524Z,6.30
2022-08-20T10:08:13.978Z,11.30
2022-08-20T10:10:41.283Z,7.85
2022-08-20T10:13:08.384Z,7.45
2022-08-20T10:15:39.663Z,11.07
2022-08-20T10:18:08.778Z,9.40
2022-08-20T10:20:39.030Z,13.45
2022-08-20T10:23:05.874Z,9.13
2022-08-20T10:25:32.950Z,7.20
2022-08-20T10:27:59.763Z,9.43
2022-08-20T10:30:29.389Z,12.02
2022-08-20T10:32:58.705Z,6.32
2022-08-20T10:35:25.582Z,6.30
2022-08-20T10:37:52.700Z,10.07
2022-08-20T10:40:20.189Z,9.40
2022-08-20T10:42:49.357Z,8.30
2022-08-20T10:45:17.370Z,8.95
2022-08-20T10:50:15.805Z,8.07
2022-08-20T10:52:43.220Z,7.32
2022-08-20T10:55:10.855Z,8.07
2022-08-20T10:57:40.699Z,10.38
2022-08-20T11:00:11.710Z,5.00
2022-08-20T11:02:38.535Z,9.20
2022-08-20T11:05:06.426Z,7.63
2022-08-20T11:07:54.749Z,7.78
2022-08-20T11:10:27.823Z,7.57
2022-08-20T11:12:54.819Z,8.10
2022-08-20T11:15:23.970Z,8.30
2022-08-20T11:17:50.997Z,6.07
2022-08-20T11:20:20.088Z,9.32
2022-08-20T11:22:47.534Z,8.38
2022-08-20T11:25:17.643Z,6.53
2022-08-20T11:27:46.943Z,8.63
2022-08-20T11:30:23.139Z,9.93
2022-08-20T11:32:50.129Z,10.20
2022-08-20T11:38:05.317Z,9.13
2022-08-20T11:40:32.261Z,9.02
2022-08-20T11:43:16.666Z,7.70
2022-08-20T11:45:47.434Z,6.90
2022-08-20T11:48:14.357Z,6.13
2022-08-20T11:50:41.345Z,9.52
2022-08-20T11:53:13.053Z,6.13
2022-08-20T11:55:42.222Z,10.50
2022-08-20T11:58:11.369Z,8.88
2022-08-20T12:00:38.294Z,9.43
2022-08-20T12:03:09.363Z,6.13
2022-08-20T12:05:40.623Z,6.93
2022-08-20T12:08:10.938Z,7.82
2022-08-20T12:11:03.414Z,6.88
2022-08-20T12:13:48.341Z,9.00
2022-08-20T12:16:17.433Z,8.35
2022-08-20T12:18:44.597Z,9.82
2022-08-20T12:21:14.268Z,10.27
2022-08-20T12:23:41.144Z,7.70
2022-08-20T12:26:08.553Z,8.38
2022-08-20T12:28:35.411Z,6.95
2022-08-20T12:31:05.042Z,7.35
2022-08-20T12:33:32.348Z,9.02
2022-08-20T12:35:59.593Z,8.00
2022-08-20T12:38:27.215Z,8.15
2022-08-20T12:40:54.558Z,9.05
2022-08-20T12:43:24.854Z,9.13
2022-08-20T12:45:52.221Z,8.43
2022-08-20T12:48:20.884Z,8.35
2022-08-20T12:50:49.945Z,11.10
2022-08-20T12:53:17.347Z,8.85
2022-08-20T12:55:47.505Z,4.90
2022-08-20T12:58:14.404Z,8.07
2022-08-20T13:00:46.517Z,6.53
2022-08-20T13:03:17.903Z,8.00
2022-08-20T13:05:45.247Z,11.65
2022-08-20T13:08:12.857Z,7.90
2022-08-20T13:10:45.414Z,11.32
2022-08-20T13:13:20.929Z,11.60
2022-08-20T13:15:49.721Z,8.45
2022-08-20T13:18:16.827Z,9.30
2022-08-20T13:20:43.846Z,9.03
2022-08-20T13:23:10.710Z,10.98
2022-08-20T13:25:37.685Z,7.70
2022-08-20T13:28:05.983Z,7.40
2022-08-20T13:30:35.263Z,10.23
2022-08-20T13:33:02.129Z,8.70
2022-08-20T13:35:29.131Z,7.30
2022-08-20T13:37:56.060Z,14.23
2022-08-20T13:40:23.052Z,8.32
2022-08-20T13:42:52.412Z,5.43
2022-08-20T13:45:19.517Z,8.07
2022-08-20T13:47:46.375Z,5.90
2022-08-20T13:50:17.573Z,11.60
2022-08-20T13:52:45.966Z,24.15
2022-08-20T13:55:19.922Z,15.30
2022-08-20T13:57:47.728Z,15.82
2022-08-20T14:00:30.984Z,16.65
2022-08-20T14:02:59.245Z,14.75
2022-08-20T14:05:28.222Z,14.82
2022-08-20T14:07:55.229Z,16.33
2022-08-20T14:10:31.207Z,16.47
2022-08-20T14:12:59.414Z,13.43
2022-08-20T14:17:56.404Z,17.35
2022-08-20T14:20:29.154Z,11.98
2022-08-20T14:22:57.034Z,14.32
2022-08-20T14:25:26.069Z,6.20
2022-08-20T14:27:53.832Z,10.55
2022-08-20T14:30:25.794Z,9.02
2022-08-20T14:32:53.247Z,9.70
2022-08-20T14:35:20.786Z,7.85
2022-08-20T14:37:53.475Z,9.30
2022-08-20T14:40:23.893Z,5.65
2022-08-20T14:42:51.964Z,7.28
2022-08-20T14:45:20.400Z,7.60
2022-08-20T14:47:54.332Z,5.82
2022-08-20T14:50:25.021Z,7.00
2022-08-20T14:52:52.714Z,5.97
2022-08-20T14:55:22.243Z,5.57
2022-08-20T14:57:49.997Z,5.95
2022-08-20T15:00:22.598Z,4.55
2022-08-20T15:02:50.099Z,4.38
2022-08-20T15:05:18.077Z,3.92
2022-08-20T15:07:49.289Z,5.35
2022-08-20T15:10:28.537Z,6.45
2022-08-20T15:12:55.948Z,4.35
2022-08-20T15:15:26.380Z,5.15
2022-08-20T15:17:57.723Z,7.82
2022-08-20T15:20:29.762Z,6.07
2022-08-20T15:23:00.072Z,4.00
2022-08-20T15:25:36.136Z,5.43
2022-08-20T15:28:07.036Z,5.88
2022-08-20T15:30:33.926Z,3.53
2022-08-20T15:33:03.531Z,7.22
2022-08-20T15:35:32.777Z,4.82
2022-08-20T15:38:02.448Z,3.65
2022-08-20T15:40:31.485Z,6.18
2022-08-20T15:43:00.519Z,5.47
2022-08-20T15:45:27.663Z,5.25
2022-08-20T15:48:18.027Z,5.40
2022-08-20T15:50:47.604Z,6.25
2022-08-20T15:53:35.193Z,6.03
2022-08-20T15:59:16.820Z,5.43
2022-08-20T16:01:50.056Z,3.55
2022-08-20T16:04:35.442Z,4.78
2022-08-20T16:07:07.731Z,3.83
2022-08-20T16:09:48.504Z,4.38
2022-08-20T16:12:31.372Z,3.80
2022-08-20T16:15:02.842Z,6.38
2022-08-20T16:17:47.773Z,4.95
2022-08-20T16:20:35.213Z,4.38
2022-08-20T16:23:04.288Z,5.43
2022-08-20T16:25:53.987Z,4.82
2022-08-20T16:28:32.161Z,4.82
2022-08-20T16:31:06.063Z,6.53
2022-08-20T16:33:45.288Z,4.32
2022-08-20T16:36:27.173Z,4.85
2022-08-20T16:38:59.214Z,3.78
2022-08-20T16:41:48.082Z,5.47
2022-08-20T16:44:42.322Z,7.80
2022-08-20T16:47:18.096Z,7.82
2022-08-20T16:49:52.206Z,5.65
2022-08-20T16:52:19.413Z,4.85
2022-08-20T16:54:48.652Z,4.38
2022-08-20T16:57:17.471Z,4.68
2022-08-20T16:59:55.642Z,7.22
2022-08-20T17:02:23.311Z,7.07
2022-08-20T17:04:59.224Z,5.75
2022-08-20T17:07:42.536Z,6.05
2022-08-20T17:10:24.391Z,4.35
2022-08-20T17:13:15.508Z,9.20
2022-08-20T17:15:44.795Z,8.85
2022-08-20T17:18:28.860Z,4.57
2022-08-20T17:21:05.547Z,4.72
2022-08-20T17:23:49.350Z,5.78
2022-08-20T17:26:37.120Z,4.22
2022-08-20T17:29:15.957Z,7.93
2022-08-20T17:31:46.507Z,5.43
2022-08-20T17:34:21.563Z,5.32
2022-08-20T17:37:03.266Z,7.18
2022-08-20T17:39:31.833Z,6.07
2022-08-20T17:42:08.087Z,5.60
2022-08-20T17:44:41.327Z,7.75
2022-08-20T17:47:14.089Z,7.38
2022-08-20T17:50:01.224Z,4.75
2022-08-20T17:52:44.562Z,5.13
2022-08-20T17:55:12.742Z,6.63
2022-08-20T17:57:43.989Z,4.38
2022-08-20T18:00:16.883Z,5.95
2022-08-20T18:02:44.309Z,5.70
2022-08-20T18:05:21.703Z,6.85
2022-08-20T18:07:59.715Z,5.45
2022-08-20T18:10:27.905Z,4.43
2022-08-20T18:13:25.374Z,11.90
2022-08-20T18:15:57.984Z,8.55
2022-08-20T18:18:57.430Z,6.22
2022-08-20T18:22:00.891Z,5.75
2022-08-20T18:24:40.016Z,6.20
2022-08-20T18:27:15.158Z,6.82
2022-08-20T18:29:48.608Z,8.38
2022-08-20T18:32:27.382Z,4.75
2022-08-20T18:34:55.201Z,6.13
2022-08-20T18:37:27.649Z,6.50
2022-08-20T18:40:15.514Z,13.73
2022-08-20T18:42:43.253Z,9.13
2022-08-20T18:45:10.716Z,5.43
2022-08-20T18:47:45.225Z,3.88
2022-08-20T18:50:18.121Z,5.43
2022-08-20T18:52:51.310Z,7.53
2022-08-20T18:55:42.775Z,8.88
2022-08-20T18:58:34.092Z,7.20
2022-08-20T19:01:05.913Z,7.55
2022-08-20T19:03:35.790Z,5.50
2022-08-20T19:06:24.895Z,8.00
2022-08-20T19:09:20.968Z,7.22
2022-08-20T19:12:09.303Z,6.18
2022-08-20T19:15:03.444Z,7.30
2022-08-20T19:17:39.925Z,4.35
2022-08-20T19:20:20.855Z,5.07
2022-08-20T19:22:50.468Z,5.13
2022-08-20T19:25:42.778Z,5.15
2022-08-20T19:28:29.937Z,4.70
2022-08-20T19:31:08.052Z,3.53
2022-08-20T19:33:44.143Z,5.68
2022-08-20T19:36:22.443Z,5.18
2022-08-20T19:39:00.762Z,3.55
2022-08-20T19:41:41.300Z,6.55
2022-08-20T19:44:08.154Z,4.00
2022-08-20T19:46:43.844Z,4.57
2022-08-20T19:49:37.182Z,4.15
2022-08-20T19:52:13.464Z,6.13
2022-08-20T19:54:50.921Z,6.97
2022-08-20T19:57:20.176Z,4.28
2022-08-20T20:00:07.813Z,5.85
2022-08-20T20:02:35.364Z,5.60
2022-08-20T20:05:10.129Z,6.32
2022-08-20T20:07:49.352Z,5.32
2022-08-20T20:10:32.637Z,5.30
2022-08-20T20:13:12.270Z,8.65
2022-08-20T20:15:40.167Z,4.30
2022-08-20T20:18:11.411Z,5.72
2022-08-20T20:20:57.821Z,5.00
2022-08-20T20:23:38.570Z,6.07
2022-08-20T20:26:19.887Z,3.92
2022-08-20T20:29:11.015Z,5.78
2022-08-20T20:31:50.570Z,5.88
2022-08-20T20:34:24.972Z,6.97
2022-08-20T20:37:06.844Z,4.55
2022-08-20T20:39:45.214Z,6.18
2022-08-20T20:42:25.998Z,3.65
2022-08-20T20:44:54.386Z,3.65
2022-08-20T20:47:26.559Z,5.20
2022-08-20T20:50:06.601Z,5.63
2022-08-20T20:52:48.521Z,6.03
2022-08-20T20:55:23.411Z,5.93
2022-08-20T20:57:52.616Z,4.70
2022-08-20T21:00:22.677Z,6.85
2022-08-20T21:02:49.543Z,7.93
2022-08-20T21:05:19.709Z,4.45
2022-08-20T21:08:00.994Z,6.28
2022-08-20T21:10:34.968Z,5.35
2022-08-20T21:13:04.732Z,6.72
2022-08-20T21:15:42.715Z,5.55
2022-08-20T21:18:11.470Z,4.13
2022-08-20T21:20:38.878Z,5.63
2022-08-20T21:23:08.308Z,5.13
2022-08-20T21:25:36.709Z,4.68
2022-08-20T21:28:04.680Z,5.68
2022-08-20T21:30:32.297Z,5.88
2022-08-20T21:32:59.789Z,5.15
2022-08-20T21:35:27.696Z,5.35
2022-08-20T21:37:57.054Z,4.45
2022-08-20T21:40:24.455Z,5.50
2022-08-20T21:42:55.829Z,6.60
2022-08-20T21:45:22.894Z,6.15
2022-08-20T21:47:55.715Z,4.93
2022-08-20T21:50:22.923Z,5.13
2022-08-20T21:52:55.133Z,3.55
2022-08-20T21:55:28.689Z,4.50
2022-08-20T21:57:55.684Z,8.20
2022-08-20T22:00:47.545Z,6.93
2022-08-20T22:03:15.635Z,4.18
2022-08-20T22:05:43.132Z,4.85
2022-08-20T22:08:10.747Z,3.75
2022-08-20T22:10:38.385Z,4.55
2022-08-20T22:13:05.917Z,4.70
2022-08-20T22:15:35.859Z,5.07
2022-08-20T22:18:02.895Z,3.90
2022-08-20T22:20:30.301Z,5.75
2022-08-20T22:22:57.270Z,6.43
2022-08-20T22:25:24.130Z,4.65
2022-08-20T22:27:51.481Z,2.95
2022-08-20T22:30:18.843Z,5.23
2022-08-20T22:32:52.113Z,5.73
2022-08-20T22:35:21.907Z,4.05
2022-08-20T22:37:48.775Z,3.28
2022-08-20T22:40:16.171Z,5.65
2022-08-20T22:42:43.062Z,4.68
2022-08-20T22:45:13.464Z,3.90
2022-08-20T22:47:43.666Z,6.28
2022-08-20T22:50:12.341Z,6.20
2022-08-20T22:52:40.326Z,3.35
2022-08-20T22:55:10.273Z,3.25
2022-08-20T22:57:37.881Z,7.35
2022-08-20T23:00:11.291Z,4.25
2022-08-20T23:02:39.423Z,3.45
2022-08-20T23:05:12.454Z,6.07
2022-08-20T23:07:40.257Z,3.50
2022-08-20T23:10:07.345Z,4.90
2022-08-20T23:12:34.266Z,4.38
2022-08-20T23:15:01.133Z,5.25
2022-08-20T23:17:28.212Z,6.03
2022-08-20T23:19:55.022Z,4.43
2022-08-20T23:22:22.243Z,3.78
2022-08-20T23:24:49.257Z,4.45
2022-08-20T23:27:18.660Z,5.00
2022-08-20T23:29:46.606Z,3.35
2022-08-20T23:32:13.733Z,5.20
2022-08-20T23:34:40.577Z,3.80
2022-08-20T23:37:08.383Z,7.43
2022-08-20T23:39:35.351Z,5.18
2022-08-20T23:42:03.380Z,5.95
2022-08-20T23:44:30.261Z,5.05
2022-08-20T23:47:02.969Z,5.00
2022-08-20T23:49:31.723Z,4.93
2022-08-20T23:52:01.818Z,6.22
2022-08-20T23:54:30.191Z,4.32
2022-08-20T23:56:57.640Z,3.83
2022-08-20T23:59:25.162Z,3.70
